sensor_id;sensor_type;location;lat;lon;timestamp;P1;durP1;ratioP1;P2;durP2;ratioP2
52724;SDS011;38621;52.830;6.914;2023-02-18T00:01:41;5.68;;;1.90;;
52724;SDS011;38621;52.830;6.914;2023-02-18T00:04:08;5.35;;;1.88;;
52724;SDS011;38621;52.830;6.914;2023-02-18T00:06:34;9.00;;;2.30;;
52724;SDS011;38621;52.830;6.914;2023-02-18T00:09:00;5.72;;;1.77;;
52724;SDS011;38621;52.830;6.914;2023-02-18T00:11:29;6.53;;;1.90;;
52724;SDS011;38621;52.830;6.914;2023-02-18T00:13:58;6.72;;;2.20;;
52724;SDS011;38621;52.830;6.914;2023-02-18T00:16:26;5.03;;;1.50;;
52724;SDS011;38621;52.830;6.914;2023-02-18T00:18:56;7.03;;;1.90;;
52724;SDS011;38621;52.830;6.914;2023-02-18T00:21:24;5.35;;;1.80;;
52724;SDS011;38621;52.830;6.914;2023-02-18T00:23:50;8.35;;;2.55;;
52724;SDS011;38621;52.830;6.914;2023-02-18T00:26:17;8.05;;;2.05;;
52724;SDS011;38621;52.830;6.914;2023-02-18T00:28:43;6.45;;;1.60;;
52724;SDS011;38621;52.830;6.914;2023-02-18T00:31:11;8.38;;;1.67;;
52724;SDS011;38621;52.830;6.914;2023-02-18T00:33:40;7.30;;;1.90;;
52724;SDS011;38621;52.830;6.914;2023-02-18T00:36:07;5.20;;;2.05;;
52724;SDS011;38621;52.830;6.914;2023-02-18T00:38:38;5.88;;;1.70;;
52724;SDS011;38621;52.830;6.914;2023-02-18T00:41:04;4.65;;;2.40;;
52724;SDS011;38621;52.830;6.914;2023-02-18T00:43:30;6.45;;;2.10;;
52724;SDS011;38621;52.830;6.914;2023-02-18T00:45:56;5.57;;;1.60;;
52724;SDS011;38621;52.830;6.914;2023-02-18T00:48:22;5.95;;;1.77;;
52724;SDS011;38621;52.830;6.914;2023-02-18T00:50:47;8.48;;;1.80;;
52724;SDS011;38621;52.830;6.914;2023-02-18T00:53:13;7.68;;;1.85;;
52724;SDS011;38621;52.830;6.914;2023-02-18T00:55:39;5.45;;;2.20;;
52724;SDS011;38621;52.830;6.914;2023-02-18T00:58:09;8.52;;;1.98;;
52724;SDS011;38621;52.830;6.914;2023-02-18T01:00:35;5.15;;;1.80;;
52724;SDS011;38621;52.830;6.914;2023-02-18T01:03:02;7.47;;;1.83;;
52724;SDS011;38621;52.830;6.914;2023-02-18T01:05:28;5.22;;;1.80;;
52724;SDS011;38621;52.830;6.914;2023-02-18T01:07:54;6.93;;;2.00;;
52724;SDS011;38621;52.830;6.914;2023-02-18T01:10:19;5.97;;;2.55;;
52724;SDS011;38621;52.830;6.914;2023-02-18T01:12:45;5.82;;;1.85;;
52724;SDS011;38621;52.830;6.914;2023-02-18T01:15:12;6.95;;;1.88;;
52724;SDS011;38621;52.830;6.914;2023-02-18T01:17:40;8.82;;;1.88;;
52724;SDS011;38621;52.830;6.914;2023-02-18T01:20:06;6.50;;;1.50;;
52724;SDS011;38621;52.830;6.914;2023-02-18T01:22:32;8.48;;;2.38;;
52724;SDS011;38621;52.830;6.914;2023-02-18T01:24:58;5.47;;;1.90;;
52724;SDS011;38621;52.830;6.914;2023-02-18T01:27:24;4.75;;;1.88;;
52724;SDS011;38621;52.830;6.914;2023-02-18T01:29:49;9.68;;;2.70;;
52724;SDS011;38621;52.830;6.914;2023-02-18T01:32:15;7.22;;;2.00;;
52724;SDS011;38621;52.830;6.914;2023-02-18T01:34:41;9.88;;;2.35;;
52724;SDS011;38621;52.830;6.914;2023-02-18T01:37:06;6.65;;;2.20;;
52724;SDS011;38621;52.830;6.914;2023-02-18T01:39:32;9.32;;;2.20;;
52724;SDS011;38621;52.830;6.914;2023-02-18T01:41:58;6.97;;;2.05;;
52724;SDS011;38621;52.830;6.914;2023-02-18T01:44:25;8.60;;;2.47;;
52724;SDS011;38621;52.830;6.914;2023-02-18T01:46:52;7.15;;;2.50;;
52724;SDS011;38621;52.830;6.914;2023-02-18T01:49:20;6.05;;;2.78;;
52724;SDS011;38621;52.830;6.914;2023-02-18T01:51:50;7.55;;;2.47;;
52724;SDS011;38621;52.830;6.914;2023-02-18T01:54:22;11.77;;;4.00;;
52724;SDS011;38621;52.830;6.914;2023-02-18T01:59:50;7.60;;;2.78;;
52724;SDS011;38621;52.830;6.914;2023-02-18T02:02:20;7.28;;;2.75;;
52724;SDS011;38621;52.830;6.914;2023-02-18T02:04:48;6.88;;;2.97;;
52724;SDS011;38621;52.830;6.914;2023-02-18T02:07:15;7.22;;;2.80;;
52724;SDS011;38621;52.830;6.914;2023-02-18T02:09:43;7.15;;;2.90;;
52724;SDS011;38621;52.830;6.914;2023-02-18T02:12:19;11.30;;;3.30;;
52724;SDS011;38621;52.830;6.914;2023-02-18T02:22:58;10.48;;;3.95;;
52724;SDS011;38621;52.830;6.914;2023-02-18T02:28:38;10.05;;;4.30;;
52724;SDS011;38621;52.830;6.914;2023-02-18T02:37:05;12.80;;;5.07;;
52724;SDS011;38621;52.830;6.914;2023-02-18T02:39:34;10.45;;;4.60;;
52724;SDS011;38621;52.830;6.914;2023-02-18T02:42:10;9.80;;;4.97;;
52724;SDS011;38621;52.830;6.914;2023-02-18T02:44:53;16.67;;;5.90;;
52724;SDS011;38621;52.830;6.914;2023-02-18T02:50:08;12.80;;;5.95;;
52724;SDS011;38621;52.830;6.914;2023-02-18T02:52:45;12.55;;;6.30;;
52724;SDS011;38621;52.830;6.914;2023-02-18T02:55:14;10.27;;;6.32;;
52724;SDS011;38621;52.830;6.914;2023-02-18T02:57:41;13.90;;;6.90;;
52724;SDS011;38621;52.830;6.914;2023-02-18T03:00:10;12.70;;;7.00;;
52724;SDS011;38621;52.830;6.914;2023-02-18T03:08:24;11.55;;;6.43;;
52724;SDS011;38621;52.830;6.914;2023-02-18T03:19:04;15.82;;;7.60;;
52724;SDS011;38621;52.830;6.914;2023-02-18T03:21:33;11.60;;;6.57;;
52724;SDS011;38621;52.830;6.914;2023-02-18T03:24:27;15.85;;;7.47;;
52724;SDS011;38621;52.830;6.914;2023-02-18T03:26:55;17.20;;;9.32;;
52724;SDS011;38621;52.830;6.914;2023-02-18T03:29:30;17.27;;;8.95;;
52724;SDS011;38621;52.830;6.914;2023-02-18T03:31:58;16.80;;;8.18;;
52724;SDS011;38621;52.830;6.914;2023-02-18T03:34:31;17.58;;;9.30;;
52724;SDS011;38621;52.830;6.914;2023-02-18T03:37:00;18.33;;;9.02;;
52724;SDS011;38621;52.830;6.914;2023-02-18T03:39:28;20.02;;;10.75;;
52724;SDS011;38621;52.830;6.914;2023-02-18T03:41:55;21.08;;;10.38;;
52724;SDS011;38621;52.830;6.914;2023-02-18T03:44:21;19.45;;;10.68;;
52724;SDS011;38621;52.830;6.914;2023-02-18T03:46:49;21.15;;;11.00;;
52724;SDS011;38621;52.830;6.914;2023-02-18T03:49:15;21.85;;;11.50;;
52724;SDS011;38621;52.830;6.914;2023-02-18T03:51:41;21.33;;;10.95;;
52724;SDS011;38621;52.830;6.914;2023-02-18T03:54:07;22.88;;;11.63;;
52724;SDS011;38621;52.830;6.914;2023-02-18T03:56:34;24.95;;;12.18;;
52724;SDS011;38621;52.830;6.914;2023-02-18T03:59:00;23.17;;;12.52;;
52724;SDS011;38621;52.830;6.914;2023-02-18T04:01:26;23.42;;;12.68;;
52724;SDS011;38621;52.830;6.914;2023-02-18T04:03:52;26.50;;;13.93;;
52724;SDS011;38621;52.830;6.914;2023-02-18T04:06:20;29.48;;;14.48;;
52724;SDS011;38621;52.830;6.914;2023-02-18T04:08:46;30.73;;;13.48;;
52724;SDS011;38621;52.830;6.914;2023-02-18T04:11:12;30.95;;;13.75;;
52724;SDS011;38621;52.830;6.914;2023-02-18T04:13:37;30.30;;;15.50;;
52724;SDS011;38621;52.830;6.914;2023-02-18T04:16:03;28.98;;;15.43;;
52724;SDS011;38621;52.830;6.914;2023-02-18T04:18:29;26.10;;;13.25;;
52724;SDS011;38621;52.830;6.914;2023-02-18T04:20:55;29.73;;;14.60;;
52724;SDS011;38621;52.830;6.914;2023-02-18T04:23:21;26.38;;;14.60;;
52724;SDS011;38621;52.830;6.914;2023-02-18T04:25:47;27.73;;;15.35;;
52724;SDS011;38621;52.830;6.914;2023-02-18T04:28:13;29.45;;;13.93;;
52724;SDS011;38621;52.830;6.914;2023-02-18T04:30:40;28.42;;;14.02;;
52724;SDS011;38621;52.830;6.914;2023-02-18T04:33:07;33.63;;;15.57;;
52724;SDS011;38621;52.830;6.914;2023-02-18T04:35:33;29.42;;;15.98;;
52724;SDS011;38621;52.830;6.914;2023-02-18T04:38:01;31.33;;;17.23;;
52724;SDS011;38621;52.830;6.914;2023-02-18T04:40:27;32.17;;;15.35;;
52724;SDS011;38621;52.830;6.914;2023-02-18T04:42:55;29.23;;;15.82;;
52724;SDS011;38621;52.830;6.914;2023-02-18T04:45:22;31.10;;;15.25;;
52724;SDS011;38621;52.830;6.914;2023-02-18T04:47:48;30.80;;;16.77;;
52724;SDS011;38621;52.830;6.914;2023-02-18T04:50:14;32.40;;;15.48;;
52724;SDS011;38621;52.830;6.914;2023-02-18T04:52:39;31.95;;;16.02;;
52724;SDS011;38621;52.830;6.914;2023-02-18T04:55:05;32.97;;;15.70;;
52724;SDS011;38621;52.830;6.914;2023-02-18T04:57:31;33.13;;;16.38;;
52724;SDS011;38621;52.830;6.914;2023-02-18T04:59:57;35.22;;;15.60;;
52724;SDS011;38621;52.830;6.914;2023-02-18T05:02:22;31.92;;;16.08;;
52724;SDS011;38621;52.830;6.914;2023-02-18T05:04:48;32.90;;;15.43;;
52724;SDS011;38621;52.830;6.914;2023-02-18T05:07:14;32.30;;;15.23;;
52724;SDS011;38621;52.830;6.914;2023-02-18T05:09:40;30.15;;;14.88;;
52724;SDS011;38621;52.830;6.914;2023-02-18T05:12:05;34.45;;;15.95;;
52724;SDS011;38621;52.830;6.914;2023-02-18T05:14:31;33.53;;;16.58;;
52724;SDS011;38621;52.830;6.914;2023-02-18T05:16:57;31.38;;;15.18;;
52724;SDS011;38621;52.830;6.914;2023-02-18T05:19:23;35.95;;;16.38;;
52724;SDS011;38621;52.830;6.914;2023-02-18T05:21:48;34.97;;;15.85;;
52724;SDS011;38621;52.830;6.914;2023-02-18T05:24:14;31.77;;;14.63;;
52724;SDS011;38621;52.830;6.914;2023-02-18T05:26:40;33.72;;;15.57;;
52724;SDS011;38621;52.830;6.914;2023-02-18T05:29:05;36.17;;;16.23;;
52724;SDS011;38621;52.830;6.914;2023-02-18T05:31:31;36.47;;;16.55;;
52724;SDS011;38621;52.830;6.914;2023-02-18T05:33:57;37.47;;;15.93;;
52724;SDS011;38621;52.830;6.914;2023-02-18T05:36:23;35.80;;;16.15;;
52724;SDS011;38621;52.830;6.914;2023-02-18T05:38:48;42.95;;;16.95;;
52724;SDS011;38621;52.830;6.914;2023-02-18T05:41:14;38.40;;;16.30;;
52724;SDS011;38621;52.830;6.914;2023-02-18T05:43:40;35.53;;;15.25;;
52724;SDS011;38621;52.830;6.914;2023-02-18T05:46:24;37.85;;;15.43;;
52724;SDS011;38621;52.830;6.914;2023-02-18T05:48:50;34.90;;;13.98;;
52724;SDS011;38621;52.830;6.914;2023-02-18T05:51:15;35.58;;;15.38;;
52724;SDS011;38621;52.830;6.914;2023-02-18T05:53:41;33.17;;;13.27;;
52724;SDS011;38621;52.830;6.914;2023-02-18T05:56:07;33.33;;;13.52;;
52724;SDS011;38621;52.830;6.914;2023-02-18T05:58:33;33.88;;;13.82;;
52724;SDS011;38621;52.830;6.914;2023-02-18T06:00:58;29.35;;;12.52;;
52724;SDS011;38621;52.830;6.914;2023-02-18T06:03:24;29.73;;;12.73;;
52724;SDS011;38621;52.830;6.914;2023-02-18T06:05:50;27.80;;;11.98;;
52724;SDS011;38621;52.830;6.914;2023-02-18T06:08:16;31.67;;;13.50;;
52724;SDS011;38621;52.830;6.914;2023-02-18T06:10:44;30.15;;;12.70;;
52724;SDS011;38621;52.830;6.914;2023-02-18T06:13:10;29.23;;;11.27;;
52724;SDS011;38621;52.830;6.914;2023-02-18T06:15:36;27.23;;;12.25;;
52724;SDS011;38621;52.830;6.914;2023-02-18T06:18:03;27.95;;;11.05;;
52724;SDS011;38621;52.830;6.914;2023-02-18T06:20:30;28.95;;;11.38;;
52724;SDS011;38621;52.830;6.914;2023-02-18T06:22:55;27.73;;;11.45;;
52724;SDS011;38621;52.830;6.914;2023-02-18T06:25:21;30.75;;;11.18;;
52724;SDS011;38621;52.830;6.914;2023-02-18T06:27:47;26.40;;;10.13;;
52724;SDS011;38621;52.830;6.914;2023-02-18T06:30:13;29.75;;;10.85;;
52724;SDS011;38621;52.830;6.914;2023-02-18T06:32:38;24.15;;;10.65;;
52724;SDS011;38621;52.830;6.914;2023-02-18T06:35:04;28.90;;;12.52;;
52724;SDS011;38621;52.830;6.914;2023-02-18T06:37:30;30.90;;;12.00;;
52724;SDS011;38621;52.830;6.914;2023-02-18T06:39:56;28.25;;;12.20;;
52724;SDS011;38621;52.830;6.914;2023-02-18T06:42:22;22.58;;;10.57;;
52724;SDS011;38621;52.830;6.914;2023-02-18T06:44:48;26.17;;;10.02;;
52724;SDS011;38621;52.830;6.914;2023-02-18T06:47:13;21.13;;;8.60;;
52724;SDS011;38621;52.830;6.914;2023-02-18T06:49:39;18.92;;;7.57;;
52724;SDS011;38621;52.830;6.914;2023-02-18T06:52:05;18.80;;;7.90;;
52724;SDS011;38621;52.830;6.914;2023-02-18T06:54:31;13.43;;;6.35;;
52724;SDS011;38621;52.830;6.914;2023-02-18T06:56:58;14.93;;;6.47;;
52724;SDS011;38621;52.830;6.914;2023-02-18T06:59:24;13.05;;;6.30;;
52724;SDS011;38621;52.830;6.914;2023-02-18T07:01:51;10.50;;;5.38;;
52724;SDS011;38621;52.830;6.914;2023-02-18T07:04:16;10.05;;;5.00;;
52724;SDS011;38621;52.830;6.914;2023-02-18T07:06:42;10.52;;;5.00;;
52724;SDS011;38621;52.830;6.914;2023-02-18T07:09:08;7.95;;;4.40;;
52724;SDS011;38621;52.830;6.914;2023-02-18T07:11:33;8.50;;;4.50;;
52724;SDS011;38621;52.830;6.914;2023-02-18T07:13:59;9.95;;;4.78;;
52724;SDS011;38621;52.830;6.914;2023-02-18T07:16:25;8.43;;;3.90;;
52724;SDS011;38621;52.830;6.914;2023-02-18T07:18:51;8.38;;;4.78;;
52724;SDS011;38621;52.830;6.914;2023-02-18T07:21:16;7.82;;;4.65;;
52724;SDS011;38621;52.830;6.914;2023-02-18T07:23:42;9.35;;;4.90;;
52724;SDS011;38621;52.830;6.914;2023-02-18T07:26:11;9.10;;;5.47;;
52724;SDS011;38621;52.830;6.914;2023-02-18T07:28:38;11.02;;;6.43;;
52724;SDS011;38621;52.830;6.914;2023-02-18T07:31:05;10.95;;;6.57;;
52724;SDS011;38621;52.830;6.914;2023-02-18T07:33:32;11.95;;;6.03;;
52724;SDS011;38621;52.830;6.914;2023-02-18T07:35:58;11.32;;;6.97;;
52724;SDS011;38621;52.830;6.914;2023-02-18T07:38:26;13.32;;;7.70;;
52724;SDS011;38621;52.830;6.914;2023-02-18T07:40:53;13.50;;;7.28;;
52724;SDS011;38621;52.830;6.914;2023-02-18T07:43:19;12.98;;;7.55;;
52724;SDS011;38621;52.830;6.914;2023-02-18T07:45:45;12.15;;;7.88;;
52724;SDS011;38621;52.830;6.914;2023-02-18T07:48:11;12.05;;;7.60;;
52724;SDS011;38621;52.830;6.914;2023-02-18T07:50:40;12.05;;;7.10;;
52724;SDS011;38621;52.830;6.914;2023-02-18T07:53:07;10.52;;;6.70;;
52724;SDS011;38621;52.830;6.914;2023-02-18T07:55:35;14.75;;;7.45;;
52724;SDS011;38621;52.830;6.914;2023-02-18T07:58:20;11.80;;;7.03;;
52724;SDS011;38621;52.830;6.914;2023-02-18T08:00:48;10.88;;;6.35;;
52724;SDS011;38621;52.830;6.914;2023-02-18T08:03:17;10.13;;;5.63;;
52724;SDS011;38621;52.830;6.914;2023-02-18T08:05:44;6.93;;;4.65;;
52724;SDS011;38621;52.830;6.914;2023-02-18T08:08:12;8.57;;;5.80;;
52724;SDS011;38621;52.830;6.914;2023-02-18T08:10:39;10.32;;;6.82;;
52724;SDS011;38621;52.830;6.914;2023-02-18T08:13:06;9.45;;;6.13;;
52724;SDS011;38621;52.830;6.914;2023-02-18T08:15:32;11.00;;;6.38;;
52724;SDS011;38621;52.830;6.914;2023-02-18T08:17:58;9.18;;;5.35;;
52724;SDS011;38621;52.830;6.914;2023-02-18T08:20:23;10.15;;;5.10;;
52724;SDS011;38621;52.830;6.914;2023-02-18T08:22:49;9.45;;;5.30;;
52724;SDS011;38621;52.830;6.914;2023-02-18T08:25:15;9.45;;;5.70;;
52724;SDS011;38621;52.830;6.914;2023-02-18T08:27:40;9.93;;;5.63;;
52724;SDS011;38621;52.830;6.914;2023-02-18T08:30:06;9.75;;;5.35;;
52724;SDS011;38621;52.830;6.914;2023-02-18T08:32:33;8.05;;;4.22;;
52724;SDS011;38621;52.830;6.914;2023-02-18T08:34:59;7.47;;;4.93;;
52724;SDS011;38621;52.830;6.914;2023-02-18T08:37:25;7.95;;;4.57;;
52724;SDS011;38621;52.830;6.914;2023-02-18T08:39:51;8.68;;;4.72;;
52724;SDS011;38621;52.830;6.914;2023-02-18T08:42:17;7.07;;;3.85;;
52724;SDS011;38621;52.830;6.914;2023-02-18T08:44:42;7.60;;;3.88;;
52724;SDS011;38621;52.830;6.914;2023-02-18T08:47:08;4.45;;;2.90;;
52724;SDS011;38621;52.830;6.914;2023-02-18T08:49:34;6.53;;;3.75;;
52724;SDS011;38621;52.830;6.914;2023-02-18T08:52:01;9.00;;;4.10;;
52724;SDS011;38621;52.830;6.914;2023-02-18T08:54:27;7.15;;;3.70;;
52724;SDS011;38621;52.830;6.914;2023-02-18T08:56:54;6.97;;;3.60;;
52724;SDS011;38621;52.830;6.914;2023-02-18T08:59:22;9.02;;;4.20;;
52724;SDS011;38621;52.830;6.914;2023-02-18T09:01:48;8.45;;;3.28;;
52724;SDS011;38621;52.830;6.914;2023-02-18T09:04:15;6.25;;;3.47;;
52724;SDS011;38621;52.830;6.914;2023-02-18T09:06:40;6.68;;;4.55;;
52724;SDS011;38621;52.830;6.914;2023-02-18T09:09:06;7.28;;;3.20;;
52724;SDS011;38621;52.830;6.914;2023-02-18T09:11:32;8.00;;;4.55;;
52724;SDS011;38621;52.830;6.914;2023-02-18T09:13:58;7.68;;;3.72;;
52724;SDS011;38621;52.830;6.914;2023-02-18T09:16:24;6.53;;;3.55;;
52724;SDS011;38621;52.830;6.914;2023-02-18T09:18:52;4.32;;;2.70;;
52724;SDS011;38621;52.830;6.914;2023-02-18T09:21:18;5.63;;;3.40;;
52724;SDS011;38621;52.830;6.914;2023-02-18T09:23:44;5.90;;;3.38;;
52724;SDS011;38621;52.830;6.914;2023-02-18T09:26:11;6.43;;;3.42;;
52724;SDS011;38621;52.830;6.914;2023-02-18T09:28:38;7.50;;;3.50;;
52724;SDS011;38621;52.830;6.914;2023-02-18T09:31:10;4.68;;;2.05;;
52724;SDS011;38621;52.830;6.914;2023-02-18T09:33:42;6.38;;;2.45;;
52724;SDS011;38621;52.830;6.914;2023-02-18T09:36:10;6.55;;;3.17;;
52724;SDS011;38621;52.830;6.914;2023-02-18T09:38:36;4.55;;;2.33;;
52724;SDS011;38621;52.830;6.914;2023-02-18T09:41:03;6.15;;;2.75;;
52724;SDS011;38621;52.830;6.914;2023-02-18T09:43:41;6.95;;;2.78;;
52724;SDS011;38621;52.830;6.914;2023-02-18T09:46:20;5.45;;;2.22;;
52724;SDS011;38621;52.830;6.914;2023-02-18T09:48:50;3.53;;;1.90;;
52724;SDS011;38621;52.830;6.914;2023-02-18T09:51:16;4.18;;;2.28;;
52724;SDS011;38621;52.830;6.914;2023-02-18T09:53:43;5.57;;;2.28;;
52724;SDS011;38621;52.830;6.914;2023-02-18T09:56:11;3.75;;;2.03;;
52724;SDS011;38621;52.830;6.914;2023-02-18T09:58:40;5.07;;;2.30;;
52724;SDS011;38621;52.830;6.914;2023-02-18T10:03:48;5.22;;;2.97;;
52724;SDS011;38621;52.830;6.914;2023-02-18T10:06:18;5.57;;;2.75;;
52724;SDS011;38621;52.830;6.914;2023-02-18T10:08:57;5.07;;;2.30;;
52724;SDS011;38621;52.830;6.914;2023-02-18T10:13:57;5.05;;;2.40;;
52724;SDS011;38621;52.830;6.914;2023-02-18T10:16:25;4.47;;;1.95;;
52724;SDS011;38621;52.830;6.914;2023-02-18T10:19:03;3.10;;;1.67;;
52724;SDS011;38621;52.830;6.914;2023-02-18T10:21:35;6.05;;;2.38;;
52724;SDS011;38621;52.830;6.914;2023-02-18T10:26:34;4.00;;;2.10;;
52724;SDS011;38621;52.830;6.914;2023-02-18T10:29:01;3.75;;;1.95;;
52724;SDS011;38621;52.830;6.914;2023-02-18T10:31:34;5.45;;;2.70;;
52724;SDS011;38621;52.830;6.914;2023-02-18T10:36:48;4.85;;;1.90;;
52724;SDS011;38621;52.830;6.914;2023-02-18T10:41:54;6.43;;;1.92;;
52724;SDS011;38621;52.830;6.914;2023-02-18T10:44:36;5.50;;;2.67;;
52724;SDS011;38621;52.830;6.914;2023-02-18T10:50:00;5.88;;;2.30;;
52724;SDS011;38621;52.830;6.914;2023-02-18T10:52:34;2.33;;;1.03;;
52724;SDS011;38621;52.830;6.914;2023-02-18T10:55:10;6.65;;;2.58;;
52724;SDS011;38621;52.830;6.914;2023-02-18T10:57:47;5.72;;;1.65;;
52724;SDS011;38621;52.830;6.914;2023-02-18T11:02:59;4.18;;;1.70;;
52724;SDS011;38621;52.830;6.914;2023-02-18T11:05:45;6.82;;;2.20;;
52724;SDS011;38621;52.830;6.914;2023-02-18T11:08:19;5.68;;;1.75;;
52724;SDS011;38621;52.830;6.914;2023-02-18T11:10:53;7.78;;;1.80;;
52724;SDS011;38621;52.830;6.914;2023-02-18T11:13:27;7.45;;;1.73;;
52724;SDS011;38621;52.830;6.914;2023-02-18T11:18:40;5.72;;;1.83;;
52724;SDS011;38621;52.830;6.914;2023-02-18T11:21:31;3.67;;;1.90;;
52724;SDS011;38621;52.830;6.914;2023-02-18T11:24:05;8.25;;;1.83;;
52724;SDS011;38621;52.830;6.914;2023-02-18T11:26:34;6.15;;;1.65;;
52724;SDS011;38621;52.830;6.914;2023-02-18T11:29:14;6.72;;;1.90;;
52724;SDS011;38621;52.830;6.914;2023-02-18T11:31:43;3.58;;;1.67;;
52724;SDS011;38621;52.830;6.914;2023-02-18T11:34:21;6.57;;;1.67;;
52724;SDS011;38621;52.830;6.914;2023-02-18T11:36:51;5.68;;;1.50;;
52724;SDS011;38621;52.830;6.914;2023-02-18T11:39:36;5.88;;;1.70;;
52724;SDS011;38621;52.830;6.914;2023-02-18T11:42:10;6.20;;;1.70;;
52724;SDS011;38621;52.830;6.914;2023-02-18T11:44:47;7.50;;;1.80;;
52724;SDS011;38621;52.830;6.914;2023-02-18T11:49:42;7.10;;;1.58;;
52724;SDS011;38621;52.830;6.914;2023-02-18T11:52:19;6.90;;;1.95;;
52724;SDS011;38621;52.830;6.914;2023-02-18T11:55:00;4.60;;;1.55;;
52724;SDS011;38621;52.830;6.914;2023-02-18T11:57:36;3.92;;;1.50;;
52724;SDS011;38621;52.830;6.914;2023-02-18T12:00:22;4.80;;;1.40;;
52724;SDS011;38621;52.830;6.914;2023-02-18T12:02:54;5.10;;;1.67;;
52724;SDS011;38621;52.830;6.914;2023-02-18T12:05:24;5.32;;;2.67;;
52724;SDS011;38621;52.830;6.914;2023-02-18T12:07:53;5.35;;;1.40;;
52724;SDS011;38621;52.830;6.914;2023-02-18T12:10:34;6.05;;;1.92;;
52724;SDS011;38621;52.830;6.914;2023-02-18T12:16:10;7.88;;;1.52;;
52724;SDS011;38621;52.830;6.914;2023-02-18T12:27:15;2.92;;;1.50;;
52724;SDS011;38621;52.830;6.914;2023-02-18T12:32:34;6.22;;;1.55;;
52724;SDS011;38621;52.830;6.914;2023-02-18T12:35:48;3.15;;;1.20;;
52724;SDS011;38621;52.830;6.914;2023-02-18T13:09:25;4.60;;;2.10;;
52724;SDS011;38621;52.830;6.914;2023-02-18T13:12:34;3.08;;;1.17;;
52724;SDS011;38621;52.830;6.914;2023-02-18T13:18:21;5.70;;;1.57;;
52724;SDS011;38621;52.830;6.914;2023-02-18T13:20:51;3.70;;;1.30;;
52724;SDS011;38621;52.830;6.914;2023-02-18T13:23:21;4.80;;;1.40;;
52724;SDS011;38621;52.830;6.914;2023-02-18T13:25:50;3.95;;;1.52;;
52724;SDS011;38621;52.830;6.914;2023-02-18T13:33:58;3.15;;;1.17;;
52724;SDS011;38621;52.830;6.914;2023-02-18T13:39:31;5.88;;;1.58;;
52724;SDS011;38621;52.830;6.914;2023-02-18T13:42:11;4.55;;;1.50;;
52724;SDS011;38621;52.830;6.914;2023-02-18T13:47:15;4.70;;;1.70;;
52724;SDS011;38621;52.830;6.914;2023-02-18T13:50:20;6.05;;;2.10;;
52724;SDS011;38621;52.830;6.914;2023-02-18T13:52:50;6.63;;;1.65;;
52724;SDS011;38621;52.830;6.914;2023-02-18T13:55:38;2.50;;;1.10;;
52724;SDS011;38621;52.830;6.914;2023-02-18T13:58:23;5.63;;;1.58;;
52724;SDS011;38621;52.830;6.914;2023-02-18T14:01:04;6.47;;;1.92;;
52724;SDS011;38621;52.830;6.914;2023-02-18T14:03:55;4.63;;;1.40;;
52724;SDS011;38621;52.830;6.914;2023-02-18T14:09:41;5.07;;;1.30;;
52724;SDS011;38621;52.830;6.914;2023-02-18T14:11:54;6.72;;;1.40;;
52724;SDS011;38621;52.830;6.914;2023-02-18T14:22:31;5.68;;;1.45;;
52724;SDS011;38621;52.830;6.914;2023-02-18T14:27:33;3.92;;;1.63;;
52724;SDS011;38621;52.830;6.914;2023-02-18T14:30:04;6.95;;;1.70;;
52724;SDS011;38621;52.830;6.914;2023-02-18T14:32:45;4.50;;;1.33;;
52724;SDS011;38621;52.830;6.914;2023-02-18T14:51:50;4.32;;;1.27;;
52724;SDS011;38621;52.830;6.914;2023-02-18T14:54:17;4.93;;;1.80;;
52724;SDS011;38621;52.830;6.914;2023-02-18T14:56:55;5.97;;;1.60;;
52724;SDS011;38621;52.830;6.914;2023-02-18T14:59:23;5.90;;;1.27;;
52724;SDS011;38621;52.830;6.914;2023-02-18T15:01:53;5.75;;;1.17;;
52724;SDS011;38621;52.830;6.914;2023-02-18T15:04:20;6.20;;;1.70;;
52724;SDS011;38621;52.830;6.914;2023-02-18T15:06:56;6.25;;;1.73;;
52724;SDS011;38621;52.830;6.914;2023-02-18T15:11:59;4.32;;;1.30;;
52724;SDS011;38621;52.830;6.914;2023-02-18T15:14:38;6.00;;;1.77;;
52724;SDS011;38621;52.830;6.914;2023-02-18T15:17:07;9.75;;;2.00;;
52724;SDS011;38621;52.830;6.914;2023-02-18T15:20:04;6.90;;;1.30;;
52724;SDS011;38621;52.830;6.914;2023-02-18T15:22:31;4.53;;;1.30;;
52724;SDS011;38621;52.830;6.914;2023-02-18T15:25:01;5.93;;;1.40;;
52724;SDS011;38621;52.830;6.914;2023-02-18T15:27:30;6.15;;;2.20;;
52724;SDS011;38621;52.830;6.914;2023-02-18T15:32:50;6.25;;;1.60;;
52724;SDS011;38621;52.830;6.914;2023-02-18T15:35:18;6.05;;;1.50;;
52724;SDS011;38621;52.830;6.914;2023-02-18T15:37:51;5.25;;;1.65;;
52724;SDS011;38621;52.830;6.914;2023-02-18T15:40:19;4.80;;;2.03;;
52724;SDS011;38621;52.830;6.914;2023-02-18T15:42:49;6.28;;;1.95;;
52724;SDS011;38621;52.830;6.914;2023-02-18T15:45:22;6.32;;;1.70;;
52724;SDS011;38621;52.830;6.914;2023-02-18T15:47:54;7.05;;;2.05;;
52724;SDS011;38621;52.830;6.914;2023-02-18T15:52:52;5.40;;;1.60;;
52724;SDS011;38621;52.830;6.914;2023-02-18T15:55:24;5.82;;;1.60;;
52724;SDS011;38621;52.830;6.914;2023-02-18T15:58:00;5.75;;;1.50;;
52724;SDS011;38621;52.830;6.914;2023-02-18T16:00:32;4.68;;;1.30;;
52724;SDS011;38621;52.830;6.914;2023-02-18T16:03:10;5.55;;;1.50;;
52724;SDS011;38621;52.830;6.914;2023-02-18T16:05:39;7.03;;;1.65;;
52724;SDS011;38621;52.830;6.914;2023-02-18T16:08:20;6.57;;;1.67;;
52724;SDS011;38621;52.830;6.914;2023-02-18T16:11:10;6.93;;;1.60;;
52724;SDS011;38621;52.830;6.914;2023-02-18T16:13:36;10.27;;;3.03;;
52724;SDS011;38621;52.830;6.914;2023-02-18T16:16:19;7.57;;;1.80;;
52724;SDS011;38621;52.830;6.914;2023-02-18T16:18:48;7.60;;;1.50;;
52724;SDS011;38621;52.830;6.914;2023-02-18T16:23:44;3.75;;;1.60;;
52724;SDS011;38621;52.830;6.914;2023-02-18T16:28:50;5.95;;;1.48;;
52724;SDS011;38621;52.830;6.914;2023-02-18T16:31:17;7.40;;;1.70;;
52724;SDS011;38621;52.830;6.914;2023-02-18T16:33:45;7.47;;;1.65;;
52724;SDS011;38621;52.830;6.914;2023-02-18T16:36:14;4.32;;;1.50;;
52724;SDS011;38621;52.830;6.914;2023-02-18T16:38:41;9.05;;;1.95;;
52724;SDS011;38621;52.830;6.914;2023-02-18T16:41:11;7.07;;;1.83;;
52724;SDS011;38621;52.830;6.914;2023-02-18T16:43:38;6.40;;;1.45;;
52724;SDS011;38621;52.830;6.914;2023-02-18T16:46:13;5.60;;;1.33;;
52724;SDS011;38621;52.830;6.914;2023-02-18T16:48:42;6.68;;;1.30;;
52724;SDS011;38621;52.830;6.914;2023-02-18T16:54:10;8.77;;;1.88;;
52724;SDS011;38621;52.830;6.914;2023-02-18T16:56:36;5.13;;;1.48;;
52724;SDS011;38621;52.830;6.914;2023-02-18T16:59:03;6.50;;;1.90;;
52724;SDS011;38621;52.830;6.914;2023-02-18T17:01:36;6.97;;;1.80;;
52724;SDS011;38621;52.830;6.914;2023-02-18T17:06:31;4.68;;;1.38;;
52724;SDS011;38621;52.830;6.914;2023-02-18T17:08:57;7.38;;;2.22;;
52724;SDS011;38621;52.830;6.914;2023-02-18T17:11:25;7.22;;;1.73;;
52724;SDS011;38621;52.830;6.914;2023-02-18T17:13:57;6.03;;;2.05;;
52724;SDS011;38621;52.830;6.914;2023-02-18T17:16:24;4.38;;;1.70;;
52724;SDS011;38621;52.830;6.914;2023-02-18T17:18:50;5.30;;;1.67;;
52724;SDS011;38621;52.830;6.914;2023-02-18T17:21:18;5.80;;;1.58;;
52724;SDS011;38621;52.830;6.914;2023-02-18T17:23:45;5.18;;;1.58;;
52724;SDS011;38621;52.830;6.914;2023-02-18T17:26:22;4.53;;;1.60;;
52724;SDS011;38621;52.830;6.914;2023-02-18T17:28:50;5.18;;;1.40;;
52724;SDS011;38621;52.830;6.914;2023-02-18T17:31:27;5.63;;;1.40;;
52724;SDS011;38621;52.830;6.914;2023-02-18T17:33:56;7.85;;;1.83;;
52724;SDS011;38621;52.830;6.914;2023-02-18T17:36:24;4.80;;;1.70;;
52724;SDS011;38621;52.830;6.914;2023-02-18T17:38:50;5.45;;;1.85;;
52724;SDS011;38621;52.830;6.914;2023-02-18T17:41:16;9.70;;;2.42;;
52724;SDS011;38621;52.830;6.914;2023-02-18T17:43:42;7.28;;;1.67;;